Time;durP1;ratioP1;P1;durP2;ratioP2;P2;SDS_P1;SDS_P2;PMS_P1;PMS_P2;Temp;Humidity;BMP_temperature;BMP_pressure;BME280_temperature;BME280_humidity;BME280_pressure;Samples;Min_cycle;Max_cycle;Signal;HPM_P1;HPM_P2
2021/05/16 00:04:43;;;;;;;21.17;7.15;;;11.30;99.90;;;;;;10461548;28;20045;-63
2021/05/16 00:09:45;;;;;;;14.25;7.88;;;11.40;99.90;;;;;;10461165;28;20473;-64
2021/05/16 00:14:48;;;;;;;15.98;8.30;;;11.40;99.90;;;;;;10461278;28;20052;-64
2021/05/16 00:19:51;;;;;;;17.88;9.20;;;11.20;99.90;;;;;;10460876;28;20049;-64
2021/05/16 00:24:53;;;;;;;24.23;9.77;;;11.30;99.90;;;;;;10460540;28;20071;-63
2021/05/16 00:29:55;;;;;;;21.92;8.25;;;11.20;99.90;;;;;;10461119;28;20052;-63
2021/05/16 00:34:57;;;;;;;17.98;9.10;;;11.20;99.90;;;;;;10460256;28;20041;-63
2021/05/16 00:40:00;;;;;;;17.55;8.10;;;11.20;99.90;;;;;;10460379;28;20049;-63
2021/05/16 00:45:18;;;;;;;14.88;6.72;;;11.20;99.90;;;;;;10459840;28;20392;-63
2021/05/16 00:50:24;;;;;;;14.43;5.43;;;11.30;99.90;;;;;;10460237;28;20048;-63
2021/05/16 00:55:26;;;;;;;16.88;6.43;;;11.20;99.90;;;;;;10459801;28;20041;-63
2021/05/16 01:00:34;;;;;;;20.63;5.78;;;11.20;99.90;;;;;;10459346;28;20070;-64
2021/05/16 01:05:39;;;;;;;21.75;6.57;;;11.20;99.90;;;;;;10458944;28;20567;-62
2021/05/16 01:10:43;;;;;;;22.20;6.18;;;11.20;99.90;;;;;;10458940;28;20053;-63
2021/05/16 01:15:47;;;;;;;26.02;6.97;;;11.20;99.90;;;;;;10458643;28;20044;-63
2021/05/16 01:20:50;;;;;;;22.30;7.68;;;11.10;99.90;;;;;;10458282;28;20136;-63
2021/05/16 01:25:52;;;;;;;32.53;9.45;;;11.10;99.90;;;;;;10458782;28;20041;-63
2021/05/16 01:30:54;;;;;;;31.67;8.35;;;11.10;99.90;;;;;;10458095;28;20047;-63
2021/05/16 01:35:56;;;;;;;22.77;7.53;;;11.10;99.90;;;;;;10457825;28;20049;-64
2021/05/16 01:40:59;;;;;;;26.60;7.03;;;11.10;99.90;;;;;;10458105;28;20040;-63
2021/05/16 01:46:01;;;;;;;21.52;5.40;;;11.10;99.90;;;;;;10457455;28;20228;-64
2021/05/16 01:51:03;;;;;;;26.98;6.53;;;11.00;99.90;;;;;;10457985;28;20045;-62
2021/05/16 01:56:07;;;;;;;23.55;6.35;;;10.90;99.90;;;;;;10457374;28;20044;-64
2021/05/16 02:01:09;;;;;;;24.52;7.30;;;11.00;99.90;;;;;;10456932;28;20036;-64
2021/05/16 02:06:14;;;;;;;26.80;7.28;;;11.00;99.90;;;;;;10456962;28;20124;-65
2021/05/16 02:11:16;;;;;;;20.15;6.15;;;10.90;99.90;;;;;;10456914;28;20055;-65
2021/05/16 02:16:18;;;;;;;30.65;7.95;;;10.90;99.90;;;;;;10456668;28;20041;-63
2021/05/16 02:21:20;;;;;;;32.55;8.13;;;10.90;99.90;;;;;;10456462;28;20047;-63
2021/05/16 02:26:22;;;;;;;28.00;6.53;;;10.90;99.90;;;;;;10456416;28;20037;-64
2021/05/16 02:31:24;;;;;;;32.05;8.40;;;10.90;99.90;;;;;;10456541;28;20045;-62
2021/05/16 02:36:26;;;;;;;30.98;7.30;;;10.80;99.90;;;;;;10456391;28;20040;-64
2021/05/16 02:41:28;;;;;;;28.42;7.60;;;10.80;99.90;;;;;;10456496;28;20045;-63
2021/05/16 02:46:30;;;;;;;29.63;8.50;;;10.80;99.90;;;;;;10456042;28;20055;-62
2021/05/16 02:51:32;;;;;;;25.77;7.97;;;10.80;99.90;;;;;;10456341;28;20049;-64
2021/05/16 02:56:34;;;;;;;23.90;5.97;;;10.90;99.90;;;;;;10455977;28;20041;-64
2021/05/16 03:01:36;;;;;;;26.83;8.18;;;10.70;99.90;;;;;;10476295;28;20495;-63
2021/05/16 03:06:38;;;;;;;32.63;9.52;;;10.70;99.90;;;;;;10464072;28;20083;-63
2021/05/16 03:11:40;;;;;;;33.00;9.45;;;10.80;99.90;;;;;;10463606;28;20049;-62
2021/05/16 03:16:42;;;;;;;39.03;10.00;;;10.70;99.90;;;;;;10463515;28;20049;-63
2021/05/16 03:21:44;;;;;;;36.17;8.95;;;10.90;99.90;;;;;;10463142;28;20048;-63
2021/05/16 03:26:46;;;;;;;20.73;7.07;;;10.70;99.90;;;;;;10462652;28;20055;-63
2021/05/16 03:31:49;;;;;;;22.20;6.85;;;10.70;99.90;;;;;;10462807;28;20499;-64
2021/05/16 03:36:52;;;;;;;27.70;7.95;;;10.70;99.90;;;;;;10462680;28;20041;-64
2021/05/16 03:41:57;;;;;;;35.58;9.85;;;10.80;99.90;;;;;;10462432;28;20044;-63
2021/05/16 03:47:00;;;;;;;28.52;8.95;;;10.80;99.90;;;;;;10462202;28;20045;-63
2021/05/16 03:52:04;;;;;;;34.83;11.02;;;10.90;99.90;;;;;;10460745;28;20045;-63
2021/05/16 03:57:07;;;;;;;40.55;12.40;;;10.80;99.90;;;;;;10461634;28;20037;-63
2021/05/16 04:02:09;;;;;;;29.65;10.73;;;10.90;99.90;;;;;;10461612;28;20044;-64
2021/05/16 04:07:11;;;;;;;32.72;12.20;;;10.80;99.90;;;;;;10461233;28;20037;-64
2021/05/16 04:12:13;;;;;;;37.53;11.77;;;10.80;99.90;;;;;;10461705;28;20044;-63
2021/05/16 04:17:16;;;;;;;32.92;11.50;;;10.70;99.90;;;;;;10461152;28;20041;-62
2021/05/16 04:22:18;;;;;;;28.05;10.25;;;10.70;99.90;;;;;;10460937;28;20040;-64
2021/05/16 04:27:20;;;;;;;39.03;13.38;;;10.80;99.90;;;;;;10460959;28;20049;-64
2021/05/16 04:32:22;;;;;;;37.50;10.52;;;10.80;99.90;;;;;;10460408;28;20079;-62
2021/05/16 04:37:24;;;;;;;31.98;10.85;;;10.70;99.90;;;;;;10442557;28;20052;-62
2021/05/16 04:42:26;;;;;;;21.80;7.85;;;10.60;99.90;;;;;;10459960;28;20086;-62
2021/05/16 04:47:28;;;;;;;45.00;14.20;;;10.70;99.90;;;;;;10459868;28;20037;-63
2021/05/16 04:52:30;;;;;;;34.97;13.20;;;10.70;99.90;;;;;;10458484;28;20051;-62
2021/05/16 04:57:32;;;;;;;33.25;12.60;;;10.80;99.90;;;;;;10459599;28;20051;-63
2021/05/16 05:02:35;;;;;;;34.97;11.00;;;10.80;99.90;;;;;;10459555;28;20102;-64
2021/05/16 05:07:37;;;;;;;42.30;11.85;;;10.80;99.90;;;;;;10458977;28;20507;-63
2021/05/16 05:12:39;;;;;;;25.55;10.15;;;10.60;99.90;;;;;;10458873;28;20048;-63
2021/05/16 05:17:42;;;;;;;36.70;12.00;;;10.80;99.90;;;;;;10457405;28;20399;-63
2021/05/16 05:22:44;;;;;;;42.08;14.02;;;10.70;99.90;;;;;;10457803;28;20051;-63
2021/05/16 05:27:46;;;;;;;25.13;11.10;;;10.80;99.90;;;;;;10457042;28;20122;-63
2021/05/16 05:32:49;;;;;;;37.95;12.68;;;10.90;99.90;;;;;;10458032;28;20041;-62
2021/05/16 05:37:51;;;;;;;45.55;12.77;;;10.80;99.90;;;;;;10457719;28;20047;-63
2021/05/16 05:42:53;;;;;;;35.38;12.55;;;10.90;99.90;;;;;;10456643;28;20045;-62
2021/05/16 05:47:55;;;;;;;29.20;11.50;;;10.90;99.90;;;;;;10454564;28;20040;-63
2021/05/16 05:53:01;;;;;;;33.95;11.32;;;10.90;99.90;;;;;;10457334;28;20045;-64
2021/05/16 05:58:03;;;;;;;40.38;13.93;;;10.90;99.90;;;;;;10456251;28;20041;-62
2021/05/16 06:03:05;;;;;;;34.45;11.05;;;10.80;99.90;;;;;;10456903;28;20056;-63
2021/05/16 06:08:07;;;;;;;45.00;15.10;;;10.80;99.90;;;;;;10456837;28;20388;-63
2021/05/16 06:13:09;;;;;;;32.63;13.73;;;10.90;99.90;;;;;;10457073;28;20048;-62
2021/05/16 06:18:11;;;;;;;35.83;13.32;;;10.90;99.90;;;;;;10456572;28;20059;-63
2021/05/16 06:23:14;;;;;;;37.90;14.93;;;11.00;99.90;;;;;;10456565;28;20059;-63
2021/05/16 06:28:18;;;;;;;29.30;10.15;;;11.00;99.90;;;;;;10456765;28;20115;-62
2021/05/16 06:33:20;;;;;;;46.80;15.20;;;10.90;99.90;;;;;;10458394;28;20045;-64
2021/05/16 06:38:22;;;;;;;34.72;14.32;;;11.00;99.90;;;;;;10465297;28;20041;-62
2021/05/16 06:43:24;;;;;;;36.60;13.00;;;11.00;99.90;;;;;;10464776;28;20040;-64
2021/05/16 06:48:26;;;;;;;28.83;11.55;;;11.10;99.90;;;;;;10465089;28;20041;-65
2021/05/16 06:53:29;;;;;;;36.78;12.88;;;11.20;99.90;;;;;;10464547;28;20045;-63
2021/05/16 06:58:31;;;;;;;33.35;11.45;;;11.20;99.90;;;;;;10464044;28;20055;-61
2021/05/16 07:03:35;;;;;;;34.05;11.35;;;11.20;99.90;;;;;;10464386;28;20045;-61
2021/05/16 07:08:37;;;;;;;32.55;12.93;;;11.20;99.90;;;;;;10463927;28;20120;-63
2021/05/16 07:13:39;;;;;;;29.88;12.73;;;11.30;99.90;;;;;;10464270;28;20037;-65
2021/05/16 07:18:41;;;;;;;40.30;13.00;;;11.30;99.90;;;;;;10462086;28;20052;-65
2021/05/16 07:23:43;;;;;;;45.50;14.50;;;11.50;99.90;;;;;;10461801;28;20043;-63
2021/05/16 07:28:45;;;;;;;29.48;12.75;;;11.50;99.90;;;;;;10463350;28;20047;-63
2021/05/16 07:33:47;;;;;;;30.92;11.07;;;11.60;99.90;;;;;;10462763;28;20045;-64
2021/05/16 07:38:49;;;;;;;35.15;13.05;;;11.60;99.90;;;;;;10461133;28;20051;-64
2021/05/16 07:43:51;;;;;;;32.08;13.13;;;11.70;99.90;;;;;;10461976;28;20045;-64
2021/05/16 07:48:53;;;;;;;44.47;14.95;;;11.80;99.90;;;;;;10462017;28;20041;-64
2021/05/16 07:53:56;;;;;;;38.00;14.73;;;11.70;99.90;;;;;;10461929;28;20041;-63
2021/05/16 07:58:58;;;;;;;29.00;12.60;;;11.70;99.90;;;;;;10461842;28;20041;-66
2021/05/16 08:04:00;;;;;;;38.45;13.85;;;11.90;99.90;;;;;;10461771;28;20048;-62
2021/05/16 08:09:02;;;;;;;34.90;12.77;;;12.00;99.90;;;;;;10461617;28;20124;-63
2021/05/16 08:14:04;;;;;;;27.92;11.38;;;12.30;99.90;;;;;;10460036;28;20041;-62
2021/05/16 08:19:06;;;;;;;31.52;13.50;;;12.60;99.90;;;;;;10461013;28;20080;-63
2021/05/16 08:24:09;;;;;;;35.30;14.68;;;12.50;99.90;;;;;;10460907;28;20045;-63
2021/05/16 08:29:11;;;;;;;33.55;16.92;;;12.60;99.90;;;;;;10461230;28;20045;-62
2021/05/16 08:34:13;;;;;;;37.53;16.80;;;12.90;99.90;;;;;;10460380;28;20037;-62
2021/05/16 08:39:21;;;;;;;36.60;17.80;;;13.30;99.90;;;;;;10460673;28;20037;-63
2021/05/16 08:44:24;;;;;;;35.28;18.42;;;13.40;99.90;;;;;;10460098;28;20068;-62
2021/05/16 08:49:28;;;;;;;31.30;14.60;;;13.50;99.90;;;;;;10459720;28;20044;-62
2021/05/16 08:54:29;;;;;;;26.05;14.00;;;13.30;99.90;;;;;;10459662;28;20037;-60
2021/05/16 08:59:31;;;;;;;33.72;14.93;;;13.20;99.90;;;;;;10458309;28;20045;-61
2021/05/16 09:04:36;;;;;;;27.73;12.80;;;13.40;99.90;;;;;;10459373;28;20041;-60
2021/05/16 09:09:39;;;;;;;26.60;10.25;;;13.50;99.90;;;;;;10459120;28;20056;-58
2021/05/16 09:14:53;;;;;;;25.30;9.38;;;13.70;99.90;;;;;;10459346;28;20124;-58
2021/05/16 09:20:10;;;;;;;22.92;8.30;;;13.70;99.90;;;;;;10458824;28;20056;-60
2021/05/16 09:25:20;;;;;;;21.85;7.53;;;14.10;99.90;;;;;;10457459;28;20044;-59
2021/05/16 09:30:28;;;;;;;21.30;6.55;;;13.90;99.90;;;;;;10457372;28;20049;-61
2021/05/16 09:35:47;;;;;;;19.90;5.47;;;14.70;99.90;;;;;;10457413;28;20047;-60
2021/05/16 09:40:54;;;;;;;21.55;5.55;;;14.50;99.90;;;;;;10457187;28;20493;-59
2021/05/16 09:45:57;;;;;;;12.93;4.95;;;14.80;99.90;;;;;;10456851;28;20477;-59
2021/05/16 09:51:16;;;;;;;18.90;5.68;;;15.00;99.90;;;;;;10456659;28;20047;-60
2021/05/16 09:56:21;;;;;;;21.80;5.53;;;15.10;99.90;;;;;;10456809;28;20403;-59
2021/05/16 10:01:26;;;;;;;16.27;5.43;;;15.20;99.90;;;;;;10457256;28;20063;-58
2021/05/16 10:06:29;;;;;;;18.00;5.85;;;15.10;99.90;;;;;;10456228;28;20040;-59
2021/05/16 10:11:32;;;;;;;13.60;4.53;;;15.40;99.90;;;;;;10455421;28;20049;-59
2021/05/16 10:16:49;;;;;;;14.05;4.50;;;15.60;99.90;;;;;;10456184;28;20036;-59
2021/05/16 10:22:18;;;;;;;10.40;3.55;;;16.40;99.90;;;;;;10456970;28;20045;-59
2021/05/16 10:27:26;;;;;;;12.85;3.38;;;16.60;99.90;;;;;;10456203;28;20041;-59
2021/05/16 10:32:49;;;;;;;11.10;3.42;;;17.00;99.90;;;;;;10456373;28;20385;-59
2021/05/16 10:37:55;;;;;;;12.48;3.88;;;16.80;99.90;;;;;;10471643;28;20499;-59
2021/05/16 10:43:04;;;;;;;15.15;4.28;;;17.10;99.90;;;;;;10456143;28;20049;-59
2021/05/16 10:48:11;;;;;;;10.07;3.53;;;17.60;99.90;;;;;;10456745;28;20045;-58
2021/05/16 10:53:23;;;;;;;12.80;2.90;;;17.00;98.50;;;;;;10456387;28;20153;-59
2021/05/16 10:58:31;;;;;;;11.70;3.45;;;17.60;99.90;;;;;;10455490;28;20384;-59
2021/05/16 11:03:48;;;;;;;10.68;3.70;;;18.30;99.90;;;;;;10453779;28;20059;-60
2021/05/16 11:08:50;;;;;;;12.35;3.83;;;18.50;99.90;;;;;;10455596;28;20043;-60
2021/05/16 11:13:52;;;;;;;17.63;3.78;;;19.10;98.80;;;;;;10455528;28;20048;-61
2021/05/16 11:18:54;;;;;;;9.60;3.25;;;19.20;98.90;;;;;;10471145;28;20044;-59
2021/05/16 11:23:56;;;;;;;9.65;3.00;;;19.20;99.90;;;;;;10463191;28;20037;-63
2021/05/16 11:28:59;;;;;;;7.60;2.50;;;19.40;97.20;;;;;;10463139;28;20119;-60
2021/05/16 11:34:05;;;;;;;9.20;3.08;;;19.60;98.00;;;;;;10462676;28;20059;-59
2021/05/16 11:39:08;;;;;;;9.20;2.70;;;19.90;96.40;;;;;;10462692;28;20473;-60
2021/05/16 11:44:14;;;;;;;6.93;2.10;;;20.20;94.70;;;;;;10462453;28;20056;-60
2021/05/16 11:49:30;;;;;;;8.35;2.67;;;20.30;94.00;;;;;;10462662;28;20074;-59
2021/05/16 11:54:43;;;;;;;7.75;2.88;;;20.20;95.50;;;;;;10462092;28;20041;-59
2021/05/16 11:59:46;;;;;;;8.48;3.15;;;19.70;96.00;;;;;;10461754;28;20473;-60
2021/05/16 12:04:48;;;;;;;8.15;2.53;;;19.80;95.10;;;;;;10461671;28;20041;-59
2021/05/16 12:09:50;;;;;;;8.70;2.58;;;19.70;92.00;;;;;;10461630;28;20170;-61
2021/05/16 12:14:56;;;;;;;7.70;2.55;;;19.60;92.40;;;;;;10461118;28;20052;-60
2021/05/16 12:19:58;;;;;;;6.20;1.80;;;18.80;90.50;;;;;;10461059;28;20146;-59
2021/05/16 12:25:00;;;;;;;7.63;2.17;;;19.10;96.90;;;;;;10460855;28;20049;-59
2021/05/16 12:30:07;;;;;;;2.92;1.85;;;18.50;95.90;;;;;;10460719;28;20045;-60
2021/05/16 12:35:09;;;;;;;4.00;1.67;;;18.30;95.60;;;;;;10459368;28;20072;-59
2021/05/16 12:40:27;;;;;;;9.02;2.28;;;18.60;97.90;;;;;;10460208;28;20084;-61
2021/05/16 12:45:30;;;;;;;7.90;2.42;;;19.20;97.00;;;;;;10460238;28;20041;-59
2021/05/16 12:50:43;;;;;;;6.85;2.60;;;19.90;94.60;;;;;;10459890;28;20041;-59
2021/05/16 12:55:45;;;;;;;7.85;2.17;;;19.50;93.40;;;;;;10460482;28;20090;-61
2021/05/16 13:00:56;;;;;;;7.45;2.08;;;18.90;92.00;;;;;;10459192;28;20476;-61
2021/05/16 13:06:00;;;;;;;9.82;2.42;;;19.80;95.30;;;;;;10459276;28;20484;-61
2021/05/16 13:11:08;;;;;;;7.40;2.42;;;19.90;91.60;;;;;;10459213;28;20053;-60
2021/05/16 13:16:14;;;;;;;5.05;2.17;;;19.30;94.20;;;;;;10458782;28;20047;-61
2021/05/16 13:21:18;;;;;;;11.18;2.80;;;19.00;93.10;;;;;;10459152;28;20135;-61
2021/05/16 13:26:51;;;;;;;3.90;2.00;;;18.00;98.70;;;;;;10458599;28;20068;-61
2021/05/16 13:31:53;;;;;;;5.88;2.60;;;17.20;98.20;;;;;;10458534;28;20045;-61
2021/05/16 13:36:57;;;;;;;8.70;2.53;;;16.90;99.90;;;;;;10458201;28;20052;-60
2021/05/16 13:42:00;;;;;;;4.65;2.92;;;16.70;99.90;;;;;;10457331;28;20047;-59
2021/05/16 13:47:04;;;;;;;8.75;2.60;;;16.30;99.90;;;;;;10457640;28;20491;-60
2021/05/16 13:52:08;;;;;;;10.38;3.65;;;16.40;99.90;;;;;;10458163;28;20083;-60
2021/05/16 13:57:09;;;;;;;6.63;2.72;;;16.60;99.90;;;;;;10457358;28;20425;-59
2021/05/16 14:02:12;;;;;;;3.92;2.10;;;16.20;99.90;;;;;;10457030;28;20045;-61
2021/05/16 14:07:14;;;;;;;6.25;3.20;;;16.40;99.90;;;;;;10472407;28;20044;-60
2021/05/16 14:12:16;;;;;;;7.38;2.67;;;16.00;99.90;;;;;;10457710;28;20055;-60
2021/05/16 14:17:18;;;;;;;5.03;1.88;;;16.10;99.90;;;;;;10456895;28;20052;-60
2021/05/16 14:22:20;;;;;;;5.53;2.55;;;15.80;99.90;;;;;;10457079;28;20052;-60
2021/05/16 14:27:23;;;;;;;7.75;3.45;;;15.80;99.90;;;;;;10456723;28;20047;-61
2021/05/16 14:32:25;;;;;;;4.60;2.05;;;16.00;99.90;;;;;;10456708;28;20049;-60
2021/05/16 14:37:27;;;;;;;2.63;1.73;;;16.40;99.90;;;;;;10455213;28;20045;-59
2021/05/16 14:42:30;;;;;;;4.60;1.98;;;16.30;99.90;;;;;;10456267;28;20044;-59
2021/05/16 14:47:32;;;;;;;3.50;1.50;;;16.50;99.90;;;;;;10456213;28;20044;-59
2021/05/16 14:52:34;;;;;;;5.82;1.92;;;16.60;99.90;;;;;;10456232;28;20044;-58
2021/05/16 14:57:36;;;;;;;5.80;2.90;;;16.50;99.90;;;;;;10463358;28;20465;-59
2021/05/16 15:02:38;;;;;;;7.30;2.88;;;16.00;99.90;;;;;;10464159;28;20044;-59
2021/05/16 15:07:40;;;;;;;6.18;2.10;;;16.00;99.90;;;;;;10463776;28;20047;-61
2021/05/16 15:12:42;;;;;;;5.25;2.67;;;16.30;99.90;;;;;;10462567;28;20048;-59
2021/05/16 15:17:44;;;;;;;4.65;2.58;;;16.30;99.90;;;;;;10464102;28;20040;-60
2021/05/16 15:22:46;;;;;;;7.03;2.97;;;16.10;99.90;;;;;;10463247;28;20047;-60
2021/05/16 15:27:48;;;;;;;5.30;2.63;;;16.10;99.90;;;;;;10462901;28;20506;-61
2021/05/16 15:32:51;;;;;;;8.20;2.83;;;16.00;99.90;;;;;;10463135;28;20124;-61
2021/05/16 15:37:53;;;;;;;4.47;2.67;;;16.00;99.90;;;;;;10463516;28;20044;-60
2021/05/16 15:42:55;;;;;;;6.30;3.30;;;16.00;99.90;;;;;;10462334;28;20040;-59
2021/05/16 15:47:57;;;;;;;3.95;2.72;;;16.00;99.90;;;;;;10462494;28;20037;-60
2021/05/16 15:53:08;;;;;;;10.65;3.95;;;15.90;99.90;;;;;;10461965;28;20044;-59
2021/05/16 15:58:11;;;;;;;3.47;2.37;;;15.90;99.90;;;;;;10462041;28;20059;-59
2021/05/16 16:03:13;;;;;;;6.43;2.78;;;15.80;99.90;;;;;;10461783;28;20063;-58
2021/05/16 16:08:15;;;;;;;5.15;2.78;;;15.80;99.90;;;;;;10460974;28;20384;-59
2021/05/16 16:13:17;;;;;;;9.25;3.17;;;15.80;99.90;;;;;;10461490;28;20228;-59
2021/05/16 16:18:19;;;;;;;7.10;3.00;;;15.90;99.90;;;;;;10461437;28;20059;-60
2021/05/16 16:23:21;;;;;;;4.38;2.38;;;15.90;99.90;;;;;;10460911;28;20477;-60
2021/05/16 16:28:24;;;;;;;6.15;2.65;;;15.80;99.90;;;;;;10460781;28;20472;-61
2021/05/16 16:33:29;;;;;;;5.00;2.58;;;15.90;99.90;;;;;;10461134;28;20123;-59
2021/05/16 16:38:32;;;;;;;4.90;2.38;;;15.90;99.90;;;;;;10461119;28;20086;-59
2021/05/16 16:43:34;;;;;;;7.30;2.03;;;16.00;99.90;;;;;;10459964;28;20051;-61
2021/05/16 16:48:36;;;;;;;6.68;2.50;;;16.10;99.90;;;;;;10460617;28;20041;-60
2021/05/16 16:53:38;;;;;;;8.25;2.58;;;16.10;99.90;;;;;;10459925;28;20059;-60
2021/05/16 16:58:40;;;;;;;4.57;1.80;;;15.90;99.90;;;;;;10458587;28;20052;-59
2021/05/16 17:03:43;;;;;;;9.13;3.55;;;16.00;99.90;;;;;;10459178;28;20041;-60
2021/05/16 17:08:45;;;;;;;3.70;1.85;;;16.10;99.90;;;;;;10458954;28;20052;-61
2021/05/16 17:13:47;;;;;;;6.22;2.17;;;16.00;99.90;;;;;;10458957;28;20049;-60
2021/05/16 17:18:49;;;;;;;8.80;3.53;;;15.90;99.90;;;;;;10456630;28;20071;-59
2021/05/16 17:23:51;;;;;;;7.47;2.17;;;16.00;99.90;;;;;;10459383;28;20076;-61
2021/05/16 17:28:53;;;;;;;5.10;1.90;;;16.00;99.90;;;;;;10458515;28;20128;-59
2021/05/16 17:33:55;;;;;;;5.28;1.98;;;16.00;99.90;;;;;;10458173;28;20518;-60
2021/05/16 17:38:57;;;;;;;6.82;3.40;;;15.90;99.90;;;;;;10458752;28;20036;-61
2021/05/16 17:43:59;;;;;;;4.38;1.52;;;15.80;99.90;;;;;;10457505;28;20485;-62
2021/05/16 17:49:01;;;;;;;6.93;1.92;;;15.70;99.90;;;;;;10472813;28;20400;-60
2021/05/16 17:54:03;;;;;;;4.38;1.80;;;15.80;99.90;;;;;;10457596;28;20048;-59
2021/05/16 17:59:07;;;;;;;5.10;1.83;;;15.70;99.90;;;;;;10457432;28;20051;-60
2021/05/16 18:04:11;;;;;;;4.97;1.85;;;15.70;99.90;;;;;;10457178;28;20094;-60
2021/05/16 18:09:13;;;;;;;8.23;1.83;;;15.60;99.90;;;;;;10457075;28;20070;-60
2021/05/16 18:14:16;;;;;;;8.70;2.75;;;15.40;99.90;;;;;;10457183;28;20045;-58
2021/05/16 18:19:18;;;;;;;4.82;1.75;;;15.40;99.90;;;;;;10457298;28;20055;-61
2021/05/16 18:24:21;;;;;;;2.92;2.30;;;15.30;99.90;;;;;;10456626;28;20045;-60
2021/05/16 18:29:23;;;;;;;6.47;1.92;;;15.30;99.90;;;;;;10456627;28;20059;-59
2021/05/16 18:34:26;;;;;;;5.03;1.63;;;15.20;99.90;;;;;;10456541;28;20048;-58
2021/05/16 18:39:28;;;;;;;6.60;2.80;;;15.00;99.90;;;;;;10456568;28;20049;-58
2021/05/16 18:44:30;;;;;;;5.30;2.08;;;15.00;99.90;;;;;;10454922;28;20047;-59
2021/05/16 18:49:32;;;;;;;6.35;2.42;;;14.90;99.90;;;;;;10456176;28;20412;-59
2021/05/16 18:54:34;;;;;;;5.05;1.98;;;14.90;99.90;;;;;;10471382;28;20503;-58
2021/05/16 18:59:36;;;;;;;6.50;2.40;;;14.70;99.90;;;;;;10456078;28;20409;-59
2021/05/16 19:04:38;;;;;;;5.38;2.30;;;14.70;99.90;;;;;;10455850;28;20045;-58
2021/05/16 19:09:42;;;;;;;6.00;2.20;;;14.50;99.90;;;;;;10455983;28;20045;-58
2021/05/16 19:14:44;;;;;;;6.63;2.88;;;14.30;99.90;;;;;;10455751;28;20045;-59
2021/05/16 19:19:46;;;;;;;7.07;2.65;;;14.30;99.90;;;;;;10455911;28;20056;-60
2021/05/16 19:24:48;;;;;;;9.98;4.47;;;14.00;99.90;;;;;;10455455;28;20053;-59
2021/05/16 19:29:50;;;;;;;5.15;2.35;;;13.90;99.90;;;;;;10455865;28;20041;-59
2021/05/16 19:34:52;;;;;;;9.50;2.63;;;13.50;99.90;;;;;;10455134;28;20473;-58
2021/05/16 19:39:54;;;;;;;5.28;2.58;;;13.50;99.90;;;;;;10455532;28;20037;-58
2021/05/16 19:44:56;;;;;;;5.25;2.30;;;13.50;99.90;;;;;;10462040;28;20047;-59
2021/05/16 19:50:08;;;;;;;8.57;2.75;;;13.40;99.90;;;;;;10462707;28;20044;-59
2021/05/16 19:55:12;;;;;;;5.47;2.58;;;13.20;99.90;;;;;;10462003;28;20485;-59
2021/05/16 20:00:15;;;;;;;4.70;2.85;;;13.10;99.90;;;;;;10463269;28;20041;-58
2021/05/16 20:05:17;;;;;;;4.68;3.03;;;13.10;99.90;;;;;;10461766;28;20113;-59
2021/05/16 20:10:19;;;;;;;5.40;2.05;;;12.90;99.90;;;;;;10461689;28;20041;-59
2021/05/16 20:15:21;;;;;;;4.45;2.40;;;12.90;99.90;;;;;;10461635;28;20120;-59
2021/05/16 20:20:24;;;;;;;7.38;2.28;;;12.70;99.90;;;;;;10476609;28;20055;-58
2021/05/16 20:25:28;;;;;;;5.55;2.45;;;12.70;99.90;;;;;;10461095;28;20060;-59
2021/05/16 20:30:32;;;;;;;3.83;2.25;;;12.60;99.90;;;;;;10460949;28;20477;-58
2021/05/16 20:35:36;;;;;;;6.18;2.30;;;12.50;99.90;;;;;;10460731;28;20048;-59
2021/05/16 20:40:43;;;;;;;3.58;1.70;;;12.30;99.90;;;;;;10460576;28;20052;-59
2021/05/16 20:45:52;;;;;;;2.35;2.15;;;12.30;99.90;;;;;;10460177;28;20072;-60
2021/05/16 20:50:54;;;;;;;3.83;2.38;;;12.20;99.90;;;;;;10460145;28;20045;-58
2021/05/16 20:55:56;;;;;;;7.32;3.08;;;12.30;99.90;;;;;;10459491;28;20041;-60
2021/05/16 21:01:02;;;;;;;3.53;1.85;;;12.20;99.90;;;;;;10459908;28;20047;-59
2021/05/16 21:06:04;;;;;;;5.20;2.20;;;12.10;99.90;;;;;;10459289;28;20045;-59
2021/05/16 21:11:06;;;;;;;3.08;2.10;;;12.00;99.90;;;;;;10458756;28;20045;-61
2021/05/16 21:16:08;;;;;;;2.70;1.85;;;12.00;99.90;;;;;;10459226;28;20045;-59
2021/05/16 21:21:10;;;;;;;3.88;2.00;;;12.00;99.90;;;;;;10458825;28;20059;-60
2021/05/16 21:26:12;;;;;;;2.42;1.65;;;11.80;99.90;;;;;;10457400;28;20385;-60
2021/05/16 21:31:16;;;;;;;6.88;2.33;;;11.80;99.90;;;;;;10458499;28;20055;-61
2021/05/16 21:36:18;;;;;;;4.20;2.15;;;11.90;99.90;;;;;;10458351;28;20098;-59
2021/05/16 21:41:20;;;;;;;3.80;1.95;;;11.70;99.90;;;;;;10473328;28;20124;-60
2021/05/16 21:46:22;;;;;;;2.83;2.10;;;11.60;99.90;;;;;;10456487;28;20388;-58
2021/05/16 21:51:24;;;;;;;4.18;2.10;;;11.60;99.90;;;;;;10457631;28;20044;-59
2021/05/16 21:56:26;;;;;;;1.95;1.80;;;11.60;99.90;;;;;;10457634;28;20041;-60
2021/05/16 22:01:28;;;;;;;4.70;2.50;;;11.60;99.90;;;;;;10457890;28;20055;-59
2021/05/16 22:06:30;;;;;;;6.75;3.03;;;11.50;99.90;;;;;;10456620;28;20053;-61
2021/05/16 22:11:32;;;;;;;6.47;2.72;;;11.40;99.90;;;;;;10457229;28;20127;-58
2021/05/16 22:16:34;;;;;;;6.60;3.25;;;11.50;99.90;;;;;;10457089;28;20055;-59
2021/05/16 22:21:36;;;;;;;3.20;2.88;;;11.40;99.90;;;;;;10455412;28;20045;-57
2021/05/16 22:26:38;;;;;;;5.93;3.15;;;11.50;99.90;;;;;;10456808;28;20044;-58
2021/05/16 22:31:41;;;;;;;4.53;2.20;;;11.50;99.90;;;;;;10456739;28;20080;-56
2021/05/16 22:36:43;;;;;;;9.73;3.75;;;11.50;99.90;;;;;;10457000;28;20065;-61
2021/05/16 22:41:46;;;;;;;4.57;4.18;;;11.50;99.90;;;;;;10456069;28;20095;-58
2021/05/16 22:46:49;;;;;;;4.72;3.75;;;11.50;99.90;;;;;;10456309;28;20049;-58
2021/05/16 22:51:51;;;;;;;5.85;4.35;;;11.40;99.90;;;;;;10456135;28;20051;-60
2021/05/16 22:56:53;;;;;;;9.13;5.57;;;11.50;99.90;;;;;;10456228;28;20041;-60
2021/05/16 23:01:56;;;;;;;3.83;3.15;;;11.40;99.90;;;;;;10455842;28;20045;-60
2021/05/16 23:06:58;;;;;;;7.43;4.50;;;11.50;99.90;;;;;;10456084;28;20201;-59
2021/05/16 23:12:01;;;;;;;4.65;3.88;;;11.50;99.90;;;;;;10455849;28;20049;-60
2021/05/16 23:17:04;;;;;;;5.90;5.05;;;11.60;99.90;;;;;;10474212;28;20041;-60
2021/05/16 23:22:06;;;;;;;10.02;5.93;;;11.50;99.90;;;;;;10462102;28;20132;-61
2021/05/16 23:27:09;;;;;;;6.68;5.10;;;11.50;99.90;;;;;;10462370;28;20070;-60
2021/05/16 23:32:12;;;;;;;7.97;6.53;;;11.60;99.90;;;;;;10463239;28;20124;-60
2021/05/16 23:37:15;;;;;;;5.70;5.00;;;11.70;99.90;;;;;;10461924;28;20037;-60
2021/05/16 23:42:18;;;;;;;7.80;6.90;;;11.70;99.90;;;;;;10461495;28;20036;-60
2021/05/16 23:47:20;;;;;;;7.35;6.00;;;11.70;99.90;;;;;;10463188;28;20069;-61
2021/05/16 23:52:22;;;;;;;8.80;6.63;;;11.70;99.90;;;;;;10462161;28;20044;-60
2021/05/16 23:57:24;;;;;;;16.98;9.20;;;11.80;99.90;;;;;;10477680;28;20499;-59
